Time;durP1;ratioP1;P1;durP2;ratioP2;P2;SDS_P1;SDS_P2;PMS_P1;PMS_P2;Temp;Humidity;BMP_temperature;BMP_pressure;BME280_temperature;BME280_humidity;BME280_pressure;Samples;Min_cycle;Max_cycle;Signal;HPM_P1;HPM_P2
2023/01/13 00:00:49;;;;;;;62.30;22.20;;;;;;;1.05;83.98;100899.52;108051;1254;61236;-65
2023/01/13 00:03:16;;;;;;;55.10;21.70;;;;;;;1.20;83.49;100908.02;107981;1254;74707;-64
2023/01/13 00:05:43;;;;;;;49.70;19.70;;;;;;;1.45;83.17;100907.30;108036;1254;72375;-65
2023/01/13 00:08:10;;;;;;;66.30;21.70;;;;;;;1.31;83.76;100907.48;107926;1254;74310;-65
2023/01/13 00:10:37;;;;;;;76.70;23.80;;;;;;;1.52;82.87;100906.20;108001;1257;62487;-64
2023/01/13 00:13:04;;;;;;;68.20;23.50;;;;;;;1.57;82.59;100904.87;108005;1254;60133;-65
2023/01/13 00:15:31;;;;;;;70.00;23.70;;;;;;;1.47;83.82;100907.86;107950;1255;73227;-64
2023/01/13 00:17:58;;;;;;;67.30;23.40;;;;;;;1.74;82.90;100908.88;107975;1257;71085;-64
2023/01/13 00:20:25;;;;;;;63.80;23.30;;;;;;;1.68;83.17;100904.64;107958;1257;74720;-64
2023/01/13 00:22:52;;;;;;;75.60;24.50;;;;;;;1.68;83.43;100907.23;107968;1257;63097;-64
2023/01/13 00:25:19;;;;;;;56.30;19.50;;;;;;;1.75;83.66;100909.41;107982;1257;61140;-65
2023/01/13 00:27:46;;;;;;;84.10;23.70;;;;;;;1.67;84.03;100908.80;107932;1255;75590;-64
2023/01/13 00:30:13;;;;;;;69.10;25.10;;;;;;;1.73;82.93;100907.48;107991;1257;72326;-65
2023/01/13 00:32:40;;;;;;;59.20;19.80;;;;;;;1.71;82.52;100906.06;108011;1257;72855;-63
2023/01/13 00:35:07;;;;;;;75.90;23.40;;;;;;;1.69;82.34;100903.10;107986;1257;62446;-65
2023/01/13 00:37:36;;;;;;;68.10;24.20;;;;;;;1.89;81.11;100900.91;107870;1256;61686;-64
2023/01/13 00:40:04;;;;;;;69.00;24.20;;;;;;;2.24;80.31;100896.58;108033;1257;75021;-66
2023/01/13 00:45:16;;;;;;;77.80;24.40;;;;;;;2.23;71.41;100894.48;107910;1257;72823;-64
2023/01/13 00:47:43;;;;;;;79.60;27.00;;;;;;;2.37;70.40;100893.92;107908;1257;60675;-65
2023/01/13 00:50:10;;;;;;;73.60;26.20;;;;;;;2.41;69.75;100895.16;107974;1256;61544;-64
2023/01/13 00:52:37;;;;;;;76.40;25.30;;;;;;;2.37;69.07;100890.61;108005;1257;75193;-64
2023/01/13 00:55:07;;;;;;;67.30;24.10;;;;;;;2.43;69.12;100889.80;107946;1255;72578;-64
2023/01/13 00:57:34;;;;;;;56.00;22.00;;;;;;;2.45;69.24;100893.10;107967;1257;74980;-65
2023/01/13 01:00:02;;;;;;;57.50;23.50;;;;;;;2.30;70.12;100893.34;107916;1255;64254;-64
2023/01/13 01:02:29;;;;;;;62.80;21.70;;;;;;;2.53;69.78;100892.66;107962;1256;62380;-63
2023/01/13 01:04:56;;;;;;;66.90;22.70;;;;;;;2.69;68.74;100892.79;107963;1255;75334;-63
2023/01/13 01:07:22;;;;;;;57.80;22.70;;;;;;;2.85;67.84;100884.21;107950;1255;72076;-63
2023/01/13 01:09:49;;;;;;;65.20;23.70;;;;;;;3.06;66.58;100881.93;107963;1257;74867;-63
2023/01/13 01:12:16;;;;;;;59.90;20.40;;;;;;;2.84;66.62;100884.05;108005;1257;60389;-64
2023/01/13 01:14:43;;;;;;;64.20;25.00;;;;;;;2.47;66.82;100885.33;108124;1254;62379;-64
2023/01/13 01:17:10;;;;;;;53.90;18.80;;;;;;;2.44;66.46;100876.98;108076;1254;73600;-66
2023/01/13 01:19:37;;;;;;;60.30;21.90;;;;;;;2.10;67.72;100877.04;107937;1254;72315;-64
2023/01/13 01:22:04;;;;;;;70.70;24.20;;;;;;;2.31;67.19;100871.52;108003;1257;74091;-64
2023/01/13 01:24:31;;;;;;;63.00;22.20;;;;;;;2.40;66.79;100870.55;107973;1254;61712;-64
2023/01/13 01:26:58;;;;;;;52.40;17.10;;;;;;;2.44;66.90;100873.35;107965;1254;59695;-64
2023/01/13 01:29:25;;;;;;;76.50;25.90;;;;;;;2.28;67.43;100870.11;108041;1254;74696;-65
2023/01/13 01:31:52;;;;;;;53.40;19.60;;;;;;;2.45;66.96;100867.64;107987;1254;69566;-63
2023/01/13 01:34:19;;;;;;;62.50;21.30;;;;;;;2.36;67.10;100863.92;107960;1254;74999;-63
2023/01/13 01:36:46;;;;;;;56.70;17.90;;;;;;;2.62;66.20;100863.61;108037;1254;64076;-64
2023/01/13 01:39:12;;;;;;;51.60;21.80;;;;;;;2.03;68.00;100864.33;107994;1254;61338;-65
2023/01/13 01:43:57;;;;;;;63.10;20.40;;;;;;;2.40;67.45;100860.31;108078;1254;74799;-62
2023/01/13 01:44:42;;;;;;;68.00;21.70;;;;;;;2.38;67.25;100856.48;108073;1254;71985;-64
2023/01/13 01:47:10;;;;;;;46.00;16.70;;;;;;;2.48;66.96;100853.80;107942;1254;71789;-63
2023/01/13 01:49:37;;;;;;;61.90;21.90;;;;;;;2.41;67.15;100853.92;108013;1254;64058;-64
2023/01/13 01:52:26;;;;;;;61.60;23.50;;;;;;;2.54;66.43;100846.02;107917;1254;62130;-66
2023/01/13 01:55:00;;;;;;;45.40;18.70;;;;;;;2.47;66.56;100846.16;107920;1254;75076;-65
2023/01/13 01:57:38;;;;;;;61.40;23.00;;;;;;;2.39;67.44;100848.70;107919;1254;72428;-65
2023/01/13 02:00:06;;;;;;;66.30;23.00;;;;;;;2.66;66.30;100848.73;107874;1254;75060;-65
2023/01/13 02:02:40;;;;;;;49.00;20.80;;;;;;;2.83;65.53;100848.65;108088;1257;60868;-63
2023/01/13 02:05:08;;;;;;;58.00;19.70;;;;;;;2.99;64.87;100848.25;108109;1257;62129;-64
2023/01/13 02:07:34;;;;;;;57.40;22.00;;;;;;;2.93;64.80;100847.50;108033;1254;74058;-64
2023/01/13 02:10:05;;;;;;;44.70;20.20;;;;;;;2.88;65.04;100846.96;108027;1259;69007;-64
2023/01/13 04:24:44;;;;;;;48.30;20.50;;;;;;;-1.00;100.00;100820.23;105758;1283;613855;-77
2023/01/13 04:27:11;;;;;;;62.80;25.10;;;;;;;0.35;100.00;100819.31;107289;1266;129140;-78
2023/01/13 04:29:38;;;;;;;46.20;16.00;;;;;;;0.33;100.00;100818.25;107448;1267;62649;-79
2023/01/13 04:32:05;;;;;;;63.50;23.10;;;;;;;0.14;100.00;100819.69;107414;1267;72796;-79
2023/01/13 04:34:32;;;;;;;52.80;19.80;;;;;;;0.38;100.00;100822.30;108149;1253;69328;-79
2023/01/13 04:36:58;;;;;;;57.50;23.80;;;;;;;0.59;100.00;100821.59;108160;1253;74696;-77
2023/01/13 04:39:25;;;;;;;55.70;22.20;;;;;;;0.61;100.00;100823.86;108223;1254;64036;-78
2023/01/13 04:41:58;;;;;;;55.60;22.20;;;;;;;0.77;100.00;100820.96;108287;1254;62643;-78
2023/01/13 04:44:25;;;;;;;54.00;21.10;;;;;;;0.88;100.00;100824.24;108369;1254;71075;-78
2023/01/13 04:46:52;;;;;;;52.00;20.80;;;;;;;0.88;100.00;100830.80;108263;1254;71340;-78
2023/01/13 04:49:19;;;;;;;54.80;22.80;;;;;;;0.90;100.00;100832.40;108254;1254;73666;-78
2023/01/13 04:51:51;;;;;;;56.60;23.00;;;;;;;0.88;100.00;100830.64;108188;1259;61766;-78
2023/01/13 04:54:18;;;;;;;52.00;22.80;;;;;;;0.96;100.00;100827.64;108310;1254;60938;-78
2023/01/13 04:56:45;;;;;;;53.40;21.00;;;;;;;1.15;100.00;100823.73;108239;1254;75122;-78
2023/01/13 04:59:12;;;;;;;51.20;21.40;;;;;;;0.94;100.00;100823.10;108294;1258;72948;-78
2023/01/13 05:01:39;;;;;;;44.30;15.30;;;;;;;0.75;100.00;100817.48;108221;1254;73306;-78
2023/01/13 05:04:06;;;;;;;54.80;22.10;;;;;;;0.93;100.00;100818.42;108154;1254;61674;-78
2023/01/13 05:06:33;;;;;;;56.70;21.40;;;;;;;0.93;100.00;100821.89;108253;1255;61484;-78
2023/01/13 05:09:00;;;;;;;54.10;19.40;;;;;;;0.91;100.00;100827.21;108231;1254;75200;-79
2023/01/13 05:16:59;;;;;;;46.20;17.20;;;;;;;1.13;100.00;100831.81;108059;1256;63390;-77
2023/01/13 05:19:31;;;;;;;46.70;16.70;;;;;;;1.30;100.00;100832.05;107823;1257;59049;-77
2023/01/13 05:27:29;;;;;;;60.30;21.00;;;;;;;1.26;100.00;100835.27;108049;1256;75041;-78
2023/01/13 05:29:56;;;;;;;58.70;21.80;;;;;;;1.28;100.00;100832.88;108110;1257;62762;-79
2023/01/13 05:32:23;;;;;;;48.80;19.70;;;;;;;1.46;100.00;100831.18;108090;1257;60748;-79
2023/01/13 05:34:49;;;;;;;51.00;20.10;;;;;;;1.47;99.95;100832.25;108057;1260;73272;-78
2023/01/13 05:37:16;;;;;;;61.60;22.80;;;;;;;1.39;100.00;100828.17;108012;1256;72925;-78
2023/01/13 05:45:14;;;;;;;53.50;20.20;;;;;;;1.38;100.00;100830.05;108098;1260;62434;-79
2023/01/13 05:47:41;;;;;;;46.40;21.20;;;;;;;1.59;99.95;100831.66;108020;1258;75210;-78
2023/01/13 05:50:09;;;;;;;63.90;23.40;;;;;;;1.78;99.73;100828.05;108024;1260;69794;-78
2023/01/13 05:52:36;;;;;;;47.60;17.30;;;;;;;2.16;97.76;100828.07;107926;1256;75040;-78
2023/01/13 05:55:03;;;;;;;56.80;22.70;;;;;;;1.91;95.83;100830.80;107996;1260;63946;-79
2023/01/13 05:57:30;;;;;;;37.50;15.90;;;;;;;1.94;86.16;100829.77;108091;1256;62338;-79
2023/01/13 05:59:56;;;;;;;52.00;18.40;;;;;;;1.81;86.24;100832.08;108003;1256;74173;-80
2023/01/13 06:02:25;;;;;;;55.10;17.70;;;;;;;1.62;86.59;100837.25;108008;1257;72269;-77
2023/01/13 08:21:14;;;;;;;66.00;25.60;;;;;;;-1.04;100.00;100871.72;105740;1285;613454;-64
2023/01/13 08:23:42;;;;;;;68.30;27.10;;;;;;;0.06;100.00;100864.61;107240;1263;106862;-64
2023/01/13 08:26:10;;;;;;;60.10;24.00;;;;;;;-0.18;100.00;100858.48;107391;1264;61187;-66
2023/01/13 08:28:39;;;;;;;57.60;24.40;;;;;;;-0.12;100.00;100852.02;107358;1264;72962;-65
2023/01/13 08:31:07;;;;;;;59.50;24.10;;;;;;;0.03;100.00;100851.96;107337;1267;70614;-65
2023/01/13 08:33:35;;;;;;;71.00;28.10;;;;;;;0.36;100.00;100849.22;107402;1269;73530;-65
2023/01/13 08:36:05;;;;;;;71.30;26.80;;;;;;;0.42;100.00;100843.96;107367;1264;61640;-65
2023/01/13 08:38:34;;;;;;;35.40;15.60;;;;;;;0.26;100.00;100840.94;107312;1263;61573;-65
2023/01/13 08:41:07;;;;;;;62.80;23.90;;;;;;;0.20;100.00;100838.42;107378;1264;72966;-65
2023/01/13 08:43:34;;;;;;;65.60;26.60;;;;;;;0.53;100.00;100838.78;107366;1264;71129;-65
2023/01/13 08:46:03;;;;;;;67.10;26.30;;;;;;;0.59;100.00;100836.80;107321;1264;73659;-65
2023/01/13 08:48:30;;;;;;;64.20;26.20;;;;;;;0.75;100.00;100837.02;107371;1263;60663;-65
2023/01/13 08:51:05;;;;;;;59.70;25.50;;;;;;;0.96;100.00;100844.75;107379;1264;61336;-64
2023/01/13 08:53:34;;;;;;;53.40;19.30;;;;;;;0.96;100.00;100843.03;107348;1268;74266;-64
2023/01/13 08:56:01;;;;;;;40.20;16.70;;;;;;;0.93;100.00;100846.61;107312;1264;70436;-64
2023/01/13 08:58:27;;;;;;;57.90;24.70;;;;;;;1.00;100.00;100843.92;107319;1263;73853;-64
2023/01/13 09:00:54;;;;;;;63.20;21.90;;;;;;;0.93;100.00;100841.42;107330;1264;63168;-65
2023/01/13 09:03:21;;;;;;;69.60;25.50;;;;;;;0.80;100.00;100842.27;107430;1267;60381;-63
2023/01/13 09:05:48;;;;;;;56.40;22.90;;;;;;;1.02;100.00;100839.98;107357;1264;72538;-65
2023/01/13 09:08:15;;;;;;;69.30;24.40;;;;;;;1.33;100.00;100837.61;107372;1264;71324;-65
2023/01/13 09:10:42;;;;;;;52.70;19.60;;;;;;;1.50;100.00;100830.02;107306;1263;72782;-65
2023/01/13 09:13:11;;;;;;;57.60;25.00;;;;;;;1.54;100.00;100827.65;107260;1266;62227;-66
2023/01/13 09:15:39;;;;;;;61.70;24.60;;;;;;;1.53;100.00;100821.74;107301;1267;61360;-65
2023/01/13 09:18:06;;;;;;;55.10;22.40;;;;;;;1.34;100.00;100826.89;108023;1254;73313;-65
2023/01/13 09:20:33;;;;;;;58.20;24.10;;;;;;;1.31;100.00;100829.45;107983;1257;71196;-65
2023/01/13 09:23:00;;;;;;;60.40;23.30;;;;;;;1.30;100.00;100830.84;107964;1256;73623;-64
2023/01/13 09:25:28;;;;;;;61.70;24.70;;;;;;;1.23;100.00;100829.88;108033;1257;62895;-64
2023/01/13 09:27:55;;;;;;;68.00;26.60;;;;;;;1.35;100.00;100825.35;108017;1257;59343;-64
2023/01/13 09:30:23;;;;;;;70.60;24.20;;;;;;;1.36;100.00;100824.16;108034;1257;73114;-64
2023/01/13 09:34:58;;;;;;;58.20;24.70;;;;;;;1.32;100.00;100824.27;108002;1257;69876;-64
2023/01/13 09:35:37;;;;;;;58.40;23.80;;;;;;;1.12;100.00;100830.95;107999;1256;73555;-63
2023/01/13 09:38:05;;;;;;;62.60;23.90;;;;;;;1.47;100.00;100821.15;108023;1257;62131;-64
2023/01/13 09:40:31;;;;;;;54.10;21.40;;;;;;;1.63;100.00;100821.67;107992;1255;60677;-64
2023/01/13 09:46:42;;;;;;;64.10;23.10;;;;;;;2.11;100.00;100818.50;108052;1256;70339;-64
2023/01/13 09:49:19;;;;;;;57.10;22.50;;;;;;;2.13;100.00;100817.83;108059;1257;71646;-65
2023/01/13 09:51:57;;;;;;;56.20;22.60;;;;;;;2.53;100.00;100814.84;108046;1259;60510;-64
2023/01/13 09:54:31;;;;;;;58.60;22.70;;;;;;;2.59;100.00;100808.80;108006;1257;61575;-64
2023/01/13 09:56:58;;;;;;;55.30;20.40;;;;;;;2.54;100.00;100801.49;108024;1256;74128;-64
2023/01/13 09:59:27;;;;;;;52.80;22.90;;;;;;;2.56;100.00;100797.34;108055;1256;70710;-64
2023/01/13 14:13:29;;;;;;;69.80;29.40;;;;;;;-2.56;100.00;100787.55;109346;1258;615463;-96
2023/01/13 14:16:08;;;;;;;59.90;26.40;;;;;;;-1.02;100.00;100777.52;110451;1236;59996;-62
2023/01/13 14:18:44;;;;;;;63.20;27.10;;;;;;;-0.53;100.00;100773.48;110391;1238;61280;-65
2023/01/13 14:21:24;;;;;;;58.20;25.60;;;;;;;-0.30;100.00;100772.67;110418;1240;73322;-63
2023/01/13 14:24:02;;;;;;;54.50;23.20;;;;;;;-0.25;100.00;100772.41;110404;1236;71551;-64
2023/01/13 14:26:30;;;;;;;56.60;27.00;;;;;;;-0.13;100.00;100769.85;110482;1238;178601;-64
2023/01/13 14:28:58;;;;;;;68.30;28.30;;;;;;;0.13;100.00;100764.40;110734;1235;61919;-63
2023/01/13 14:46:50;;;;;;;55.30;24.30;;;;;;;0.37;100.00;100758.34;105825;1282;613467;-65
2023/01/13 14:49:20;;;;;;;57.60;25.30;;;;;;;1.26;100.00;100756.38;107873;1254;134806;-65
2023/01/13 14:51:47;;;;;;;48.30;22.40;;;;;;;1.51;100.00;100756.84;108208;1254;60848;-64
2023/01/13 14:55:05;;;;;;;45.10;22.20;;;;;;;1.57;100.00;100754.13;108183;1254;74316;-64
2023/01/13 14:57:34;;;;;;;47.20;21.10;;;;;;;1.61;100.00;100761.24;107727;1258;70811;-64
2023/01/13 15:00:13;;;;;;;58.10;23.20;;;;;;;1.47;100.00;100759.90;107759;1259;74525;-62
2023/01/13 15:02:49;;;;;;;45.80;21.60;;;;;;;1.79;100.00;100756.22;107958;1253;63607;-63
2023/01/13 15:05:15;;;;;;;39.90;20.60;;;;;;;1.97;100.00;100759.50;108222;1254;62632;-64
2023/01/13 15:07:55;;;;;;;39.80;21.40;;;;;;;1.96;100.00;100759.66;108184;1254;73076;-64
2023/01/13 15:10:48;;;;;;;41.00;22.00;;;;;;;2.08;100.00;100751.44;108154;1254;71284;-61
2023/01/13 15:13:24;;;;;;;47.00;22.60;;;;;;;2.10;99.58;100753.36;108147;1254;73275;-64
2023/01/13 15:15:54;;;;;;;48.70;20.80;;;;;;;1.83;99.93;100751.76;108102;1254;61397;-64
2023/01/13 15:18:21;;;;;;;51.90;22.80;;;;;;;1.57;100.00;100753.95;108236;1254;60543;-64
2023/01/13 15:20:49;;;;;;;43.00;20.10;;;;;;;1.70;100.00;100756.30;108132;1254;73256;-64
2023/01/13 15:23:17;;;;;;;44.60;20.80;;;;;;;1.68;100.00;100752.65;108224;1254;72985;-65
2023/01/13 15:25:44;;;;;;;37.70;19.30;;;;;;;1.75;100.00;100752.72;108235;1253;75029;-65
2023/01/13 15:28:24;;;;;;;35.30;18.00;;;;;;;1.71;100.00;100754.06;108159;1259;62282;-65
2023/01/13 15:30:52;;;;;;;43.50;20.00;;;;;;;2.03;99.94;100751.74;108273;1254;61450;-65
2023/01/13 15:33:20;;;;;;;45.10;19.10;;;;;;;2.24;99.34;100750.00;108204;1254;75640;-65
2023/01/13 15:35:49;;;;;;;44.50;20.70;;;;;;;2.17;99.08;100750.80;108093;1254;70560;-65
2023/01/13 15:38:18;;;;;;;48.90;20.40;;;;;;;2.10;98.92;100750.77;107966;1257;72843;-65
2023/01/13 15:40:45;;;;;;;44.70;21.80;;;;;;;2.20;99.28;100748.23;107950;1255;63296;-64
2023/01/13 15:46:57;;;;;;;42.20;20.10;;;;;;;2.01;98.88;100754.84;107951;1259;74686;-65
2023/01/13 15:49:13;;;;;;;43.40;20.40;;;;;;;2.28;97.89;100755.56;107869;1256;72356;-64
2023/01/13 15:51:42;;;;;;;48.40;21.80;;;;;;;2.38;97.09;100760.31;107759;1257;74995;-64
2023/01/13 15:54:10;;;;;;;44.70;21.50;;;;;;;2.21;97.45;100756.91;107920;1257;59494;-64
2023/01/13 15:56:38;;;;;;;41.40;18.50;;;;;;;2.21;97.53;100761.07;107887;1256;62396;-64
2023/01/13 15:59:05;;;;;;;39.40;16.80;;;;;;;2.25;97.91;100755.20;107912;1256;74945;-65
2023/01/13 16:01:31;;;;;;;42.50;20.60;;;;;;;2.09;98.38;100758.38;107982;1257;70127;-64
2023/01/13 16:03:58;;;;;;;37.70;16.20;;;;;;;1.99;98.67;100757.09;108072;1257;74726;-65
2023/01/13 16:06:33;;;;;;;48.50;19.40;;;;;;;1.89;98.81;100756.30;107900;1257;64246;-65
2023/01/13 16:09:00;;;;;;;61.60;25.30;;;;;;;1.93;99.37;100756.52;107915;1256;62366;-65
2023/01/13 16:11:29;;;;;;;136.80;68.00;;;;;;;2.09;99.29;100757.16;107989;1256;72918;-65
2023/01/13 16:13:56;;;;;;;77.30;38.00;;;;;;;2.29;97.93;100755.05;107886;1256;70235;-65
2023/01/13 16:16:24;;;;;;;61.80;30.10;;;;;;;2.32;96.58;100751.43;107893;1257;75027;-65
2023/01/13 16:18:51;;;;;;;129.90;79.40;;;;;;;2.22;96.55;100750.48;107962;1257;61067;-65
2023/01/13 16:21:19;;;;;;;53.30;24.40;;;;;;;2.22;96.88;100747.90;107897;1259;62607;-65
2023/01/13 16:23:47;;;;;;;64.00;33.60;;;;;;;2.18;94.94;100750.64;107884;1257;75177;-64
2023/01/13 16:26:29;;;;;;;45.60;24.20;;;;;;;2.33;85.38;100747.10;108055;1257;70413;-65
2023/01/13 16:28:56;;;;;;;54.30;24.50;;;;;;;2.44;84.41;100746.14;107927;1258;74031;-65
2023/01/13 16:31:23;;;;;;;49.80;23.00;;;;;;;2.41;83.71;100747.85;107881;1259;61976;-64
2023/01/13 16:33:50;;;;;;;36.60;14.00;;;;;;;2.21;84.94;100749.97;107900;1255;61525;-64
2023/01/13 16:36:18;;;;;;;47.30;21.90;;;;;;;1.96;85.81;100756.19;107892;1255;73778;-65
2023/01/13 16:38:46;;;;;;;51.30;21.40;;;;;;;2.01;85.72;100759.00;107854;1256;71356;-65
2023/01/13 16:41:23;;;;;;;55.80;23.50;;;;;;;1.80;87.37;100756.58;107843;1257;72406;-65
2023/01/13 16:43:50;;;;;;;50.00;23.30;;;;;;;2.17;86.45;100753.05;107881;1256;63504;-65
2023/01/13 16:46:20;;;;;;;46.10;21.40;;;;;;;2.35;85.41;100753.70;107872;1259;62333;-65
2023/01/13 16:48:48;;;;;;;48.60;20.70;;;;;;;2.43;85.03;100747.86;107920;1257;75262;-64
2023/01/13 16:51:15;;;;;;;48.80;18.50;;;;;;;2.55;84.47;100745.85;107909;1256;72717;-65
2023/01/13 16:53:42;;;;;;;48.50;24.10;;;;;;;2.42;84.65;100745.42;107819;1257;74818;-65
2023/01/13 16:56:29;;;;;;;51.60;23.50;;;;;;;2.49;83.90;100743.56;107851;1256;63102;-65
2023/01/13 16:58:58;;;;;;;44.30;20.60;;;;;;;2.30;84.34;100746.92;107899;1257;61369;-65
2023/01/13 17:01:33;;;;;;;52.50;23.80;;;;;;;2.06;86.05;100746.05;107945;1259;74847;-65
2023/01/13 17:04:00;;;;;;;48.50;19.20;;;;;;;2.14;86.59;100742.99;107790;1257;71534;-65
2023/01/13 17:06:37;;;;;;;48.30;21.10;;;;;;;2.02;87.26;100749.31;107799;1257;74198;-65
2023/01/13 17:09:14;;;;;;;58.50;27.10;;;;;;;1.89;88.38;100747.48;107979;1256;62634;-65
2023/01/13 17:11:41;;;;;;;62.90;21.70;;;;;;;2.02;88.47;100748.27;107960;1257;61589;-65
2023/01/13 17:14:09;;;;;;;48.20;21.40;;;;;;;2.16;87.98;100745.77;107935;1257;74908;-65
2023/01/13 17:16:45;;;;;;;55.30;25.10;;;;;;;2.46;86.77;100748.75;107928;1257;71577;-65
2023/01/13 17:19:12;;;;;;;55.80;25.90;;;;;;;2.52;86.30;100743.76;107911;1257;74475;-65
2023/01/13 17:21:39;;;;;;;62.40;24.90;;;;;;;2.59;86.29;100745.02;107913;1256;61266;-65
2023/01/13 17:24:06;;;;;;;63.20;27.50;;;;;;;2.49;86.61;100741.83;108019;1257;62299;-65
2023/01/13 17:26:42;;;;;;;66.00;25.60;;;;;;;2.55;86.33;100738.23;107970;1256;74587;-65
2023/01/13 17:29:21;;;;;;;61.50;27.30;;;;;;;2.47;86.78;100737.84;107997;1257;72486;-65
2023/01/13 17:31:49;;;;;;;81.70;35.90;;;;;;;2.62;86.13;100734.96;108042;1256;73784;-65
2023/01/13 17:34:16;;;;;;;52.70;22.00;;;;;;;2.46;86.49;100743.02;107937;1257;62353;-65
2023/01/13 17:36:43;;;;;;;54.80;21.60;;;;;;;2.33;87.33;100743.64;107963;1257;62309;-65
2023/01/13 22:16:28;;;;;;;93.90;37.70;;;;;;;-0.84;100.00;100746.20;105762;1283;613077;-78
2023/01/13 22:18:54;;;;;;;95.70;38.20;;;;;;;0.26;100.00;100740.41;107365;1264;118379;-78
2023/01/13 22:21:21;;;;;;;76.20;31.40;;;;;;;0.52;100.00;100733.54;107490;1263;60188;-79
2023/01/13 22:23:48;;;;;;;71.80;30.00;;;;;;;0.58;100.00;100729.13;107484;1263;71981;-78
2023/01/13 22:26:16;;;;;;;78.70;34.90;;;;;;;0.46;100.00;100736.05;107539;1263;71352;-78
2023/01/13 22:28:43;;;;;;;43.90;18.90;;;;;;;0.50;100.00;100742.98;107564;1265;72726;-78
2023/01/13 22:31:11;;;;;;;84.30;31.60;;;;;;;0.45;100.00;100742.08;107525;1263;62040;-78
2023/01/13 22:33:40;;;;;;;80.70;30.10;;;;;;;0.52;100.00;100750.11;107446;1264;59302;-78
2023/01/13 22:36:08;;;;;;;89.60;35.40;;;;;;;0.95;100.00;100740.30;108091;1257;72029;-78
2023/01/13 22:38:35;;;;;;;79.50;33.90;;;;;;;1.10;100.00;100738.74;108056;1257;70187;-78
2023/01/13 22:41:06;;;;;;;94.40;37.60;;;;;;;1.07;100.00;100739.06;107891;1257;71603;-77
2023/01/13 22:43:34;;;;;;;80.90;35.80;;;;;;;1.00;100.00;100735.86;108142;1257;61439;-78
2023/01/13 22:46:03;;;;;;;84.90;33.40;;;;;;;0.94;100.00;100734.75;108008;1257;60297;-78
2023/01/13 22:48:30;;;;;;;69.00;25.40;;;;;;;0.97;100.00;100741.37;108114;1255;73193;-77
2023/01/13 22:51:06;;;;;;;80.00;31.90;;;;;;;0.91;100.00;100734.04;108127;1257;71228;-78
2023/01/13 22:53:33;;;;;;;86.40;35.20;;;;;;;1.05;100.00;100736.27;108013;1258;72554;-79
2023/01/13 22:56:00;;;;;;;83.50;34.80;;;;;;;1.22;100.00;100731.27;108180;1254;60484;-78
2023/01/13 22:58:28;;;;;;;66.40;27.60;;;;;;;1.33;100.00;100732.60;108077;1254;61402;-79
2023/01/13 23:00:54;;;;;;;66.50;30.50;;;;;;;1.24;100.00;100726.09;108121;1254;74257;-78
2023/01/13 23:03:21;;;;;;;73.20;33.10;;;;;;;1.52;100.00;100720.67;108143;1254;69459;-78
2023/01/13 23:05:54;;;;;;;72.30;33.90;;;;;;;1.54;100.00;100718.79;108097;1257;73307;-78
2023/01/13 23:08:21;;;;;;;70.60;31.80;;;;;;;1.57;100.00;100721.74;108075;1254;60174;-79
2023/01/13 23:10:50;;;;;;;75.80;33.90;;;;;;;1.53;100.00;100721.38;108068;1254;59543;-78
2023/01/13 23:13:17;;;;;;;81.20;35.50;;;;;;;1.40;100.00;100717.26;108181;1254;73989;-78
2023/01/13 23:15:44;;;;;;;87.30;35.10;;;;;;;1.30;100.00;100712.48;107939;1256;69506;-79
2023/01/13 23:18:11;;;;;;;75.80;32.00;;;;;;;1.25;100.00;100710.20;108067;1256;72347;-79
2023/01/13 23:20:38;;;;;;;80.40;31.80;;;;;;;1.30;100.00;100707.30;108099;1257;60159;-79
2023/01/13 23:23:05;;;;;;;95.60;35.50;;;;;;;1.30;100.00;100699.18;108317;1254;61128;-78
2023/01/13 23:25:32;;;;;;;81.50;33.30;;;;;;;1.25;100.00;100696.52;108335;1253;73280;-79
2023/01/13 23:27:59;;;;;;;67.50;28.60;;;;;;;1.32;100.00;100702.66;108222;1256;70111;-80
2023/01/13 23:30:25;;;;;;;81.50;32.00;;;;;;;1.47;100.00;100707.30;108353;1253;73609;-79
2023/01/13 23:32:52;;;;;;;80.20;34.00;;;;;;;1.53;100.00;100710.80;108379;1254;61188;-79
2023/01/13 23:35:19;;;;;;;84.70;36.10;;;;;;;1.48;100.00;100705.58;108219;1252;60240;-79
2023/01/13 23:37:46;;;;;;;89.40;35.00;;;;;;;1.38;100.00;100709.80;108286;1253;74325;-78
2023/01/13 23:40:13;;;;;;;85.10;32.80;;;;;;;1.22;100.00;100707.21;108284;1254;69739;-79
2023/01/13 23:42:40;;;;;;;75.00;30.60;;;;;;;1.34;100.00;100703.36;108290;1254;73938;-78
2023/01/13 23:45:08;;;;;;;88.30;34.40;;;;;;;1.11;100.00;100701.39;108303;1252;60572;-78
2023/01/13 23:47:36;;;;;;;86.70;34.10;;;;;;;1.12;100.00;100696.39;108416;1254;61505;-78
2023/01/13 23:50:03;;;;;;;82.00;33.00;;;;;;;1.20;100.00;100698.55;108348;1253;72791;-78
2023/01/13 23:52:30;;;;;;;86.90;36.10;;;;;;;1.26;100.00;100698.45;108339;1253;70223;-79
2023/01/13 23:54:58;;;;;;;80.60;32.80;;;;;;;1.37;100.00;100700.11;108231;1254;72578;-78
2023/01/13 23:57:24;;;;;;;86.10;36.90;;;;;;;1.17;100.00;100702.85;108274;1253;60364;-78
2023/01/13 23:59:51;;;;;;;95.90;37.50;;;;;;;1.41;100.00;100694.27;108313;1252;59624;-79
